createdAt,value
2019-03-13T00:00:07.564Z,4.8
2019-03-13T00:00:57.560Z,4.7
2019-03-13T00:01:47.560Z,4.7
2019-03-13T00:02:38.446Z,4.7
2019-03-13T00:03:28.681Z,4.7
2019-03-13T00:04:18.384Z,4.7
2019-03-13T00:05:08.363Z,4.7
2019-03-13T00:05:58.353Z,4.7
2019-03-13T00:06:48.363Z,4.7
2019-03-13T00:07:38.418Z,4.6
2019-03-13T00:08:28.550Z,4.6
2019-03-13T00:09:18.489Z,4.6
2019-03-13T00:10:08.364Z,4.6
2019-03-13T00:10:58.338Z,4.6
2019-03-13T00:11:48.948Z,4.6
2019-03-13T00:12:38.962Z,4.5
2019-03-13T00:13:31.786Z,4.5
2019-03-13T00:14:18.954Z,4.5
2019-03-13T00:15:08.921Z,4.5
2019-03-13T00:15:58.943Z,4.5
2019-03-13T00:16:49.029Z,4.5
2019-03-13T00:17:38.957Z,4.5
2019-03-13T00:18:32.301Z,4.5
2019-03-13T00:19:18.988Z,4.5
2019-03-13T00:20:08.970Z,4.5
2019-03-13T00:20:58.998Z,4.5
2019-03-13T00:21:48.932Z,4.4
2019-03-13T00:22:38.916Z,4.4
2019-03-13T00:23:29.128Z,4.4
2019-03-13T00:24:18.994Z,4.4
2019-03-13T00:25:08.961Z,4.4
2019-03-13T00:25:58.995Z,4.4
2019-03-13T00:26:48.923Z,4.4
2019-03-13T00:27:38.919Z,4.4
2019-03-13T00:28:29.006Z,4.3
2019-03-13T00:29:18.937Z,4.3
2019-03-13T00:30:09.126Z,4.3
2019-03-13T00:30:58.928Z,4.3
2019-03-13T00:31:48.958Z,4.3
2019-03-13T00:32:39.031Z,4.3
2019-03-13T00:33:28.946Z,4.3
2019-03-13T00:34:18.974Z,4.2
2019-03-13T00:35:08.993Z,4.2
2019-03-13T00:35:59.001Z,4.2
2019-03-13T00:36:48.931Z,4.2
2019-03-13T00:37:39.044Z,4.2
2019-03-13T00:38:28.968Z,4.2
2019-03-13T00:39:18.967Z,4.2
2019-03-13T00:40:08.968Z,4.2
2019-03-13T00:40:59.045Z,4.1
2019-03-13T00:41:48.975Z,4.1
2019-03-13T00:42:39.147Z,4.1
2019-03-13T00:43:28.957Z,4.1
2019-03-13T00:44:18.972Z,4.1
2019-03-13T00:45:08.963Z,4.1
2019-03-13T00:45:58.943Z,4.1
2019-03-13T00:46:48.974Z,4.1
2019-03-13T00:47:38.910Z,4.1
2019-03-13T00:48:29.022Z,4.1
2019-03-13T00:49:19.085Z,4.1
2019-03-13T00:50:08.954Z,4.1
2019-03-13T00:50:59.479Z,4.1
2019-03-13T00:51:48.933Z,4.1
2019-03-13T00:52:39.042Z,4.1
2019-03-13T00:53:29.253Z,4.1
2019-03-13T00:54:18.998Z,4.1
2019-03-13T00:55:08.953Z,4.1
2019-03-13T00:55:58.967Z,4.1
2019-03-13T00:56:48.991Z,4.1
2019-03-13T00:57:40.736Z,4.1
2019-03-13T00:58:29.237Z,4.1
2019-03-13T00:59:22.307Z,4.1
2019-03-13T01:00:12.333Z,4.1
2019-03-13T01:01:02.263Z,4.1
2019-03-13T01:01:52.274Z,4.1
2019-03-13T01:02:42.239Z,4.1
2019-03-13T01:03:32.545Z,4.1
2019-03-13T01:04:22.247Z,4.1
2019-03-13T01:05:12.255Z,4.1
2019-03-13T01:06:02.529Z,4.1
2019-03-13T01:06:52.853Z,4.1
2019-03-13T01:07:44.363Z,4.1
2019-03-13T01:08:32.273Z,4.1
2019-03-13T01:09:22.260Z,4.1
2019-03-13T01:10:12.339Z,4.1
2019-03-13T01:11:02.289Z,4.1
2019-03-13T01:11:53.279Z,4.1
2019-03-13T01:12:44.227Z,4.1
2019-03-13T01:13:33.305Z,4.1
2019-03-13T01:14:23.313Z,4.1
2019-03-13T01:15:13.207Z,4.1
2019-03-13T01:16:03.279Z,4.1
2019-03-13T01:16:53.355Z,4.1
2019-03-13T01:17:44.620Z,4.1
2019-03-13T01:18:33.250Z,4.1
2019-03-13T01:19:23.273Z,4.1
2019-03-13T01:20:13.385Z,4.2
2019-03-13T01:21:03.491Z,4.2
2019-03-13T01:21:53.448Z,4.2
2019-03-13T01:22:43.614Z,4.1
2019-03-13T01:23:33.273Z,4.2
2019-03-13T01:24:23.355Z,4.1
2019-03-13T01:25:13.373Z,4.1
2019-03-13T01:26:03.253Z,4.1
2019-03-13T01:26:53.295Z,4.1
2019-03-13T01:27:43.519Z,4.1
2019-03-13T01:28:33.284Z,4.1
2019-03-13T01:29:23.266Z,4.1
2019-03-13T01:30:13.300Z,4.1
2019-03-13T01:31:03.335Z,4.1
2019-03-13T01:31:53.326Z,4.1
2019-03-13T01:32:45.503Z,4.1
2019-03-13T01:33:33.538Z,4.1
2019-03-13T01:34:23.486Z,4.1
2019-03-13T01:35:13.549Z,4.1
2019-03-13T01:36:03.582Z,4.1
2019-03-13T01:36:53.531Z,4.1
2019-03-13T01:37:44.063Z,4.1
2019-03-13T01:38:33.520Z,4.1
2019-03-13T01:39:23.501Z,4.1
2019-03-13T01:40:13.637Z,4.1
2019-03-13T01:41:03.592Z,4.1
2019-03-13T01:41:53.513Z,4.1
2019-03-13T01:42:47.011Z,4.1
2019-03-13T01:43:33.490Z,4.1
2019-03-13T01:44:23.609Z,4.1
2019-03-13T01:45:13.678Z,4.1
2019-03-13T01:46:03.508Z,4.1
2019-03-13T01:46:53.529Z,4
2019-03-13T01:47:44.721Z,4
2019-03-13T01:48:33.533Z,4
2019-03-13T01:49:23.543Z,4.1
2019-03-13T01:50:13.554Z,4
2019-03-13T01:51:03.510Z,4
2019-03-13T01:51:53.560Z,4
2019-03-13T01:52:44.358Z,4
2019-03-13T01:53:33.541Z,4
2019-03-13T01:54:23.576Z,4
2019-03-13T01:55:13.517Z,4
2019-03-13T01:56:03.544Z,4
2019-03-13T01:56:53.577Z,4
2019-03-13T01:57:43.519Z,4
2019-03-13T01:58:33.558Z,4
2019-03-13T01:59:23.518Z,4
2019-03-13T02:00:13.538Z,3.9
2019-03-13T02:01:03.581Z,4
2019-03-13T02:01:53.519Z,3.9
2019-03-13T02:02:43.991Z,3.9
2019-03-13T02:03:33.525Z,3.9
2019-03-13T02:04:23.540Z,3.9
2019-03-13T02:05:13.556Z,3.9
2019-03-13T02:06:03.554Z,3.9
2019-03-13T02:06:53.693Z,3.9
2019-03-13T02:07:43.574Z,3.9
2019-03-13T02:08:33.540Z,3.9
2019-03-13T02:09:23.561Z,3.9
2019-03-13T02:10:13.477Z,3.9
2019-03-13T02:11:03.525Z,3.9
2019-03-13T02:11:53.747Z,3.9
2019-03-13T02:12:44.124Z,3.9
2019-03-13T02:13:34.453Z,3.9
2019-03-13T02:14:23.509Z,3.9
2019-03-13T02:15:13.755Z,3.9
2019-03-13T02:16:03.656Z,3.9
2019-03-13T02:16:53.660Z,3.9
2019-03-13T02:17:43.862Z,3.9
2019-03-13T02:18:33.795Z,3.8
2019-03-13T02:19:23.688Z,3.8
2019-03-13T02:20:13.881Z,3.8
2019-03-13T02:21:03.756Z,3.8
2019-03-13T02:21:54.519Z,3.8
2019-03-13T02:22:44.034Z,3.7
2019-03-13T02:23:33.771Z,3.8
2019-03-13T02:24:23.786Z,3.8
2019-03-13T02:25:13.789Z,3.8
2019-03-13T02:26:03.834Z,3.8
2019-03-13T02:26:54.147Z,3.8
2019-03-13T02:27:43.779Z,3.8
2019-03-13T02:28:33.810Z,3.8
2019-03-13T02:29:23.762Z,3.8
2019-03-13T02:30:13.843Z,3.8
2019-03-13T02:31:03.886Z,3.8
2019-03-13T02:31:53.756Z,3.8
2019-03-13T02:32:44.088Z,3.8
2019-03-13T02:33:33.761Z,3.8
2019-03-13T02:34:23.775Z,3.8
2019-03-13T02:35:13.904Z,3.7
2019-03-13T02:36:03.764Z,3.7
2019-03-13T02:36:55.740Z,3.7
2019-03-13T02:37:43.769Z,3.7
2019-03-13T02:38:33.773Z,3.7
2019-03-13T02:39:23.771Z,3.7
2019-03-13T02:40:13.854Z,3.7
2019-03-13T02:41:03.882Z,3.7
2019-03-13T02:41:56.702Z,3.6
2019-03-13T02:42:44.137Z,3.7
2019-03-13T02:43:34.659Z,3.7
2019-03-13T02:44:23.787Z,3.7
2019-03-13T02:45:13.815Z,3.7
2019-03-13T02:46:03.767Z,3.6
2019-03-13T02:46:53.770Z,3.6
2019-03-13T02:47:43.765Z,3.6
2019-03-13T02:48:33.994Z,3.6
2019-03-13T02:49:23.800Z,3.6
2019-03-13T02:50:13.826Z,3.6
2019-03-13T02:51:03.799Z,3.5
2019-03-13T02:51:53.821Z,3.5
2019-03-13T02:52:44.122Z,3.5
2019-03-13T02:53:34.132Z,3.5
2019-03-13T02:54:23.799Z,3.6
2019-03-13T02:55:14.050Z,3.6
2019-03-13T02:56:04.274Z,3.6
2019-03-13T02:56:54.312Z,3.6
2019-03-13T02:57:44.311Z,3.6
2019-03-13T02:58:34.292Z,3.5
2019-03-13T02:59:24.300Z,3.5
2019-03-13T03:00:15.115Z,3.5
2019-03-13T03:01:05.104Z,3.5
2019-03-13T03:01:55.051Z,3.5
2019-03-13T03:02:45.055Z,3.5
2019-03-13T03:03:35.011Z,3.5
2019-03-13T03:04:25.053Z,3.5
2019-03-13T03:05:15.038Z,3.5
2019-03-13T03:06:05.059Z,3.5
2019-03-13T03:06:55.022Z,3.5
2019-03-13T03:07:45.019Z,3.5
2019-03-13T03:08:35.067Z,3.5
2019-03-13T03:09:25.077Z,3.5
2019-03-13T03:10:15.103Z,3.5
2019-03-13T03:11:05.040Z,3.4
2019-03-13T03:12:02.090Z,3.5
2019-03-13T03:12:50.270Z,3.5
2019-03-13T03:13:40.127Z,3.5
2019-03-13T03:14:30.213Z,3.5
2019-03-13T03:15:20.896Z,3.4
2019-03-13T03:16:10.834Z,3.5
2019-03-13T03:17:01.780Z,3.4
2019-03-13T03:17:52.332Z,3.4
2019-03-13T03:18:42.360Z,3.4
2019-03-13T03:19:32.448Z,3.4
2019-03-13T03:20:22.350Z,3.4
2019-03-13T03:21:12.265Z,3.4
2019-03-13T03:22:04.180Z,3.4
2019-03-13T03:22:52.944Z,3.4
2019-03-13T03:23:45.124Z,3.4
2019-03-13T03:24:32.968Z,3.4
2019-03-13T03:25:23.024Z,3.4
2019-03-13T03:26:12.940Z,3.4
2019-03-13T03:27:04.126Z,3.4
2019-03-13T03:27:52.939Z,3.3
2019-03-13T03:28:43.001Z,3.3
2019-03-13T03:29:32.983Z,3.3
2019-03-13T03:30:24.044Z,3.4
2019-03-13T03:31:13.991Z,3.4
2019-03-13T03:32:04.036Z,3.4
2019-03-13T03:32:53.971Z,3.4
2019-03-13T03:33:43.933Z,3.4
2019-03-13T03:34:33.970Z,3.4
2019-03-13T03:35:24.024Z,3.4
2019-03-13T03:36:14.040Z,3.4
2019-03-13T03:37:06.363Z,3.4
2019-03-13T03:37:54.000Z,3.4
2019-03-13T03:38:43.918Z,3.4
2019-03-13T03:39:35.062Z,3.4
2019-03-13T03:40:25.142Z,3.4
2019-03-13T03:41:15.093Z,3.4
2019-03-13T03:42:06.256Z,3.4
2019-03-13T03:42:55.048Z,3.4
2019-03-13T03:43:45.087Z,3.4
2019-03-13T03:44:35.146Z,3.4
2019-03-13T03:45:25.167Z,3.4
2019-03-13T03:46:15.051Z,3.4
2019-03-13T03:47:06.744Z,3.4
2019-03-13T03:47:57.149Z,3.5
2019-03-13T03:48:47.328Z,3.5
2019-03-13T03:49:37.213Z,3.5
2019-03-13T03:50:27.170Z,3.5
2019-03-13T03:51:17.199Z,3.5
2019-03-13T03:52:07.250Z,3.4
2019-03-13T03:52:57.320Z,3.4
2019-03-13T03:53:47.194Z,3.4
2019-03-13T03:54:37.495Z,3.5
2019-03-13T03:55:28.721Z,3.5
2019-03-13T03:56:20.670Z,3.4
2019-03-13T03:57:11.515Z,3.4
2019-03-13T03:58:00.684Z,3.4
2019-03-13T03:59:21.005Z,3.4
2019-03-13T03:59:40.641Z,3.4
2019-03-13T04:00:30.635Z,3.4
2019-03-13T04:01:20.640Z,3.4
2019-03-13T04:02:11.769Z,3.4
2019-03-13T04:03:00.700Z,3.4
2019-03-13T04:03:50.815Z,3.4
2019-03-13T04:04:40.660Z,3.3
2019-03-13T04:05:30.680Z,3.4
2019-03-13T04:06:20.680Z,3.4
2019-03-13T04:07:11.569Z,3.4
2019-03-13T04:08:00.653Z,3.4
2019-03-13T04:08:50.775Z,3.4
2019-03-13T04:09:40.653Z,3.4
2019-03-13T04:10:30.674Z,3.4
2019-03-13T04:11:21.327Z,3.4
2019-03-13T04:12:12.111Z,3.4
2019-03-13T04:13:01.839Z,3.4
2019-03-13T04:13:51.876Z,3.3
2019-03-13T04:14:41.840Z,3.3
2019-03-13T04:15:31.884Z,3.3
2019-03-13T04:16:21.862Z,3.3
2019-03-13T04:17:11.869Z,3.3
2019-03-13T04:18:01.900Z,3.3
2019-03-13T04:18:51.854Z,3.3
2019-03-13T04:19:41.841Z,3.2
2019-03-13T04:20:31.841Z,3.2
2019-03-13T04:21:21.853Z,3.2
2019-03-13T04:22:11.982Z,3.2
2019-03-13T04:23:01.825Z,3.2
2019-03-13T04:23:51.865Z,3.2
2019-03-13T04:24:41.839Z,3.2
2019-03-13T04:25:31.865Z,3.2
2019-03-13T04:26:21.836Z,3.3
2019-03-13T04:27:12.552Z,3.2
2019-03-13T04:28:01.859Z,3.2
2019-03-13T04:28:51.852Z,3.2
2019-03-13T04:29:41.884Z,3.2
2019-03-13T04:30:31.837Z,3.2
2019-03-13T04:31:21.850Z,3.2
2019-03-13T04:32:13.650Z,3.2
2019-03-13T04:33:01.897Z,3.2
2019-03-13T04:33:51.848Z,3.2
2019-03-13T04:34:41.849Z,3.2
2019-03-13T04:35:32.673Z,3.2
2019-03-13T04:36:22.657Z,3.2
2019-03-13T04:37:14.188Z,3.2
2019-03-13T04:38:03.799Z,3.3
2019-03-13T04:38:53.756Z,3.3
2019-03-13T04:39:43.776Z,3.3
2019-03-13T04:40:33.785Z,3.3
2019-03-13T04:41:23.712Z,3.3
2019-03-13T04:42:16.341Z,3.3
2019-03-13T04:43:03.726Z,3.3
2019-03-13T04:43:53.752Z,3.3
2019-03-13T04:44:43.742Z,3.3
2019-03-13T04:45:33.895Z,3.3
2019-03-13T04:46:23.849Z,3.3
2019-03-13T04:47:17.549Z,3.3
2019-03-13T04:48:04.499Z,3.4
2019-03-13T04:48:54.529Z,3.4
2019-03-13T04:49:44.521Z,3.4
2019-03-13T04:50:34.514Z,3.4
2019-03-13T04:51:24.486Z,3.4
2019-03-13T04:52:14.782Z,3.3
2019-03-13T04:53:04.544Z,3.3
2019-03-13T04:53:55.721Z,3.3
2019-03-13T04:54:45.773Z,3.3
2019-03-13T04:55:35.829Z,3.3
2019-03-13T04:56:25.682Z,3.3
2019-03-13T04:57:15.738Z,3.3
2019-03-13T04:58:05.693Z,3.2
2019-03-13T04:58:55.699Z,3.2
2019-03-13T04:59:45.768Z,3.1
2019-03-13T05:00:35.690Z,3.2
2019-03-13T05:01:26.286Z,3.2
2019-03-13T05:02:16.504Z,3.2
2019-03-13T05:03:05.957Z,3.2
2019-03-13T05:03:55.992Z,3.2
2019-03-13T05:04:45.960Z,3.2
2019-03-13T05:05:36.048Z,3.2
2019-03-13T05:06:26.698Z,3.2
2019-03-13T05:07:16.813Z,3.2
2019-03-13T05:08:06.669Z,3.2
2019-03-13T05:08:56.706Z,3.2
2019-03-13T05:09:46.677Z,3.2
2019-03-13T05:10:36.738Z,3.2
2019-03-13T05:11:26.853Z,3.2
2019-03-13T05:12:16.682Z,3.2
2019-03-13T05:13:06.828Z,3.2
2019-03-13T05:13:56.770Z,3.2
2019-03-13T05:14:46.722Z,3.2
2019-03-13T05:15:37.250Z,3.2
2019-03-13T05:16:26.719Z,3.2
2019-03-13T05:17:16.679Z,3.3
2019-03-13T05:18:07.421Z,3.3
2019-03-13T05:18:59.309Z,3.3
2019-03-13T05:19:57.870Z,3.3
2019-03-13T05:20:51.943Z,3.3
2019-03-13T05:21:41.932Z,3.3
2019-03-13T05:22:31.937Z,3.3
2019-03-13T05:23:22.161Z,3.3
2019-03-13T05:24:11.927Z,3.3
2019-03-13T05:25:01.930Z,3.3
2019-03-13T05:25:51.931Z,3.3
2019-03-13T05:26:43.350Z,3.3
2019-03-13T05:27:33.291Z,3.3
2019-03-13T05:28:23.492Z,3.3
2019-03-13T05:29:13.366Z,3.3
2019-03-13T05:30:06.833Z,3.3
2019-03-13T05:30:56.815Z,3.3
2019-03-13T05:31:46.831Z,3.3
2019-03-13T05:32:36.916Z,3.3
2019-03-13T05:33:26.922Z,3.3
2019-03-13T05:34:16.832Z,3.3
2019-03-13T05:35:06.801Z,3.3
2019-03-13T05:35:56.771Z,3.4
2019-03-13T05:36:46.786Z,3.4
2019-03-13T05:37:37.288Z,3.4
2019-03-13T05:38:27.507Z,3.4
2019-03-13T05:39:16.769Z,3.5
2019-03-13T05:40:07.301Z,3.5
2019-03-13T05:40:57.574Z,3.5
2019-03-13T05:41:47.372Z,3.5
2019-03-13T05:42:37.272Z,3.5
2019-03-13T05:43:27.332Z,3.5
2019-03-13T05:44:17.319Z,3.5
2019-03-13T05:45:08.463Z,3.5
2019-03-13T05:45:57.318Z,3.5
2019-03-13T05:46:47.315Z,3.6
2019-03-13T05:47:37.261Z,3.6
2019-03-13T05:48:27.315Z,3.6
2019-03-13T05:49:17.302Z,3.6
2019-03-13T05:50:07.281Z,3.6
2019-03-13T05:50:57.349Z,3.7
2019-03-13T05:51:47.333Z,3.6
2019-03-13T05:52:37.420Z,3.6
2019-03-13T05:53:27.376Z,3.6
2019-03-13T05:54:17.961Z,3.7
2019-03-13T05:55:07.945Z,3.7
2019-03-13T05:55:57.979Z,3.7
2019-03-13T05:56:47.963Z,3.7
2019-03-13T05:57:38.271Z,3.7
2019-03-13T05:58:28.367Z,3.7
2019-03-13T05:59:18.226Z,3.7
2019-03-13T06:00:08.458Z,3.7
2019-03-13T06:00:58.269Z,3.8
2019-03-13T06:01:48.209Z,3.8
2019-03-13T06:02:38.262Z,3.8
2019-03-13T06:03:29.671Z,3.8
2019-03-13T06:04:18.477Z,3.8
2019-03-13T06:05:08.502Z,3.9
2019-03-13T06:05:58.605Z,3.9
2019-03-13T06:06:48.431Z,3.9
2019-03-13T06:07:38.469Z,3.9
2019-03-13T06:08:30.097Z,3.9
2019-03-13T06:09:18.529Z,3.9
2019-03-13T06:10:08.547Z,3.9
2019-03-13T06:10:58.484Z,3.9
2019-03-13T06:11:48.518Z,3.9
2019-03-13T06:12:38.454Z,3.9
2019-03-13T06:13:28.524Z,3.9
2019-03-13T06:14:20.521Z,3.9
2019-03-13T06:15:10.537Z,3.9
2019-03-13T06:16:00.704Z,3.9
2019-03-13T06:16:51.152Z,3.9
2019-03-13T06:17:40.603Z,3.9
2019-03-13T06:18:31.071Z,3.9
2019-03-13T06:19:20.626Z,3.9
2019-03-13T06:20:10.859Z,3.9
2019-03-13T06:21:00.634Z,3.9
2019-03-13T06:21:51.624Z,3.9
2019-03-13T06:22:40.544Z,3.9
2019-03-13T06:23:32.835Z,3.9
2019-03-13T06:24:20.578Z,3.9
2019-03-13T06:25:10.620Z,3.9
2019-03-13T06:26:01.621Z,3.9
2019-03-13T06:26:51.460Z,3.9
2019-03-13T06:27:41.676Z,4
2019-03-13T06:28:33.594Z,4
2019-03-13T06:29:21.332Z,4
2019-03-13T06:30:11.319Z,4
2019-03-13T06:31:01.359Z,4
2019-03-13T06:31:51.507Z,4
2019-03-13T06:32:41.371Z,4.1
2019-03-13T06:33:32.689Z,4.1
2019-03-13T06:34:21.333Z,4.1
2019-03-13T06:35:11.319Z,4.1
2019-03-13T06:36:01.566Z,4.1
2019-03-13T06:36:51.539Z,4.1
2019-03-13T06:37:41.545Z,4.1
2019-03-13T06:38:35.077Z,4.2
2019-03-13T06:39:21.600Z,4.2
2019-03-13T06:40:11.557Z,4.2
2019-03-13T06:41:01.616Z,4.2
2019-03-13T06:41:51.588Z,4.2
2019-03-13T06:42:41.667Z,4.2
2019-03-13T06:43:31.760Z,4.2
2019-03-13T06:44:21.562Z,4.2
2019-03-13T06:45:11.647Z,4.3
2019-03-13T06:46:01.600Z,4.3
2019-03-13T06:46:51.604Z,4.3
2019-03-13T06:47:41.586Z,4.3
2019-03-13T06:48:31.605Z,4.3
2019-03-13T06:49:21.666Z,4.4
2019-03-13T06:50:11.568Z,4.4
2019-03-13T06:51:01.589Z,4.4
2019-03-13T06:51:51.568Z,4.4
2019-03-13T06:52:41.786Z,4.4
2019-03-13T06:53:31.938Z,4.4
2019-03-13T06:54:21.632Z,4.4
2019-03-13T06:55:11.617Z,4.4
2019-03-13T06:56:01.576Z,4.4
2019-03-13T06:56:51.580Z,4.4
2019-03-13T06:57:41.575Z,4.4
2019-03-13T06:58:31.614Z,4.4
2019-03-13T06:59:21.625Z,4.4
2019-03-13T07:00:11.595Z,4.4
2019-03-13T07:01:01.592Z,4.5
2019-03-13T07:01:51.573Z,4.5
2019-03-13T07:02:41.827Z,4.5
2019-03-13T07:03:31.878Z,4.5
2019-03-13T07:04:21.592Z,4.5
2019-03-13T07:05:11.595Z,4.5
2019-03-13T07:06:01.681Z,4.5
2019-03-13T07:06:51.598Z,4.5
2019-03-13T07:07:41.888Z,4.5
2019-03-13T07:08:31.591Z,4.5
2019-03-13T07:09:21.592Z,4.5
2019-03-13T07:10:11.576Z,4.5
2019-03-13T07:11:01.579Z,4.6
2019-03-13T07:11:51.556Z,4.6
2019-03-13T07:12:42.517Z,4.6
2019-03-13T07:13:31.635Z,4.7
2019-03-13T07:14:21.558Z,4.7
2019-03-13T07:15:12.375Z,4.7
2019-03-13T07:16:01.666Z,4.7
2019-03-13T07:16:51.788Z,4.8
2019-03-13T07:17:41.691Z,4.8
2019-03-13T07:18:31.573Z,4.8
2019-03-13T07:19:21.619Z,4.8
2019-03-13T07:20:11.866Z,4.8
2019-03-13T07:21:01.919Z,4.8
2019-03-13T07:21:51.589Z,4.8
2019-03-13T07:22:41.657Z,4.9
2019-03-13T07:23:31.801Z,4.9
2019-03-13T07:24:21.653Z,4.9
2019-03-13T07:25:11.627Z,4.9
2019-03-13T07:26:01.598Z,4.9
2019-03-13T07:26:51.649Z,4.9
2019-03-13T07:27:42.788Z,4.9
2019-03-13T07:28:31.590Z,4.9
2019-03-13T07:29:21.626Z,5
2019-03-13T07:30:11.630Z,4.9
2019-03-13T07:31:01.591Z,5
2019-03-13T07:31:51.614Z,5
2019-03-13T07:32:42.056Z,5
2019-03-13T07:33:31.615Z,5
2019-03-13T07:34:21.579Z,5
2019-03-13T07:35:11.607Z,5
2019-03-13T07:36:01.578Z,5
2019-03-13T07:36:51.619Z,5
2019-03-13T07:37:43.061Z,5.1
2019-03-13T07:38:31.618Z,5.1
2019-03-13T07:39:21.587Z,5.1
2019-03-13T07:40:11.611Z,5.1
2019-03-13T07:41:01.664Z,5.1
2019-03-13T07:41:51.610Z,5.1
2019-03-13T07:42:41.708Z,5.1
2019-03-13T07:43:31.625Z,5
2019-03-13T07:44:21.670Z,5
2019-03-13T07:45:11.607Z,5
2019-03-13T07:46:01.692Z,5
2019-03-13T07:46:51.672Z,5
2019-03-13T07:47:41.884Z,5
2019-03-13T07:48:31.636Z,5
2019-03-13T07:49:21.608Z,5
2019-03-13T07:50:11.576Z,5
2019-03-13T07:51:01.692Z,5
2019-03-13T07:51:51.588Z,5
2019-03-13T07:52:41.575Z,5.1
2019-03-13T07:53:32.019Z,5.1
2019-03-13T07:54:21.847Z,5.1
2019-03-13T07:55:11.861Z,5.1
2019-03-13T07:56:01.863Z,5.1
2019-03-13T07:56:51.886Z,5.1
2019-03-13T07:57:41.845Z,5.1
2019-03-13T07:58:31.841Z,5.1
2019-03-13T07:59:22.071Z,5.1
2019-03-13T08:00:11.924Z,5.1
2019-03-13T08:01:02.008Z,5.1
2019-03-13T08:01:51.816Z,5.1
2019-03-13T08:02:41.966Z,5.1
2019-03-13T08:03:31.886Z,5.1
2019-03-13T08:04:21.997Z,5.1
2019-03-13T08:05:11.863Z,5.1
2019-03-13T08:06:01.980Z,5.1
2019-03-13T08:06:51.918Z,5.1
2019-03-13T08:07:41.837Z,5.1
2019-03-13T08:08:31.868Z,5.1
2019-03-13T08:09:22.044Z,5.2
2019-03-13T08:10:12.019Z,5.2
2019-03-13T08:11:01.842Z,5.2
2019-03-13T08:11:51.848Z,5.2
2019-03-13T08:12:41.872Z,5.2
2019-03-13T08:13:31.892Z,5.2
2019-03-13T08:14:21.830Z,5.2
2019-03-13T08:15:11.884Z,5.3
2019-03-13T08:16:01.884Z,5.3
2019-03-13T08:16:51.975Z,5.3
2019-03-13T08:17:41.909Z,5.3
2019-03-13T08:18:31.952Z,5.3
2019-03-13T08:19:24.164Z,5.3
2019-03-13T08:20:12.042Z,5.3
2019-03-13T08:21:02.091Z,5.3
2019-03-13T08:22:41.881Z,5.3
2019-03-13T08:23:31.848Z,5.3
2019-03-13T08:24:21.865Z,5.3
2019-03-13T08:25:11.856Z,5.3
2019-03-13T08:26:03.050Z,5.3
2019-03-13T08:26:51.824Z,5.3
2019-03-13T08:27:41.934Z,5.3
2019-03-13T08:28:31.861Z,5.3
2019-03-13T08:29:21.974Z,5.3
2019-03-13T08:30:11.824Z,5.3
2019-03-13T08:31:02.175Z,5.3
2019-03-13T08:31:51.880Z,5.3
2019-03-13T08:32:41.913Z,5.3
2019-03-13T08:33:31.890Z,5.3
2019-03-13T08:34:21.899Z,5.3
2019-03-13T08:35:11.855Z,5.3
2019-03-13T08:36:01.865Z,5.3
2019-03-13T08:36:51.894Z,5.4
2019-03-13T08:37:42.161Z,5.4
2019-03-13T08:38:31.942Z,5.4
2019-03-13T08:39:21.900Z,5.4
2019-03-13T08:40:11.895Z,5.4
2019-03-13T08:41:01.859Z,5.4
2019-03-13T08:41:51.869Z,5.4
2019-03-13T08:42:41.897Z,5.4
2019-03-13T08:43:31.908Z,5.4
2019-03-13T08:44:21.895Z,5.4
2019-03-13T08:45:11.953Z,5.4
2019-03-13T08:46:02.864Z,5.4
2019-03-13T08:46:51.880Z,5.4
2019-03-13T08:47:42.417Z,5.4
2019-03-13T08:48:31.880Z,5.4
2019-03-13T08:49:21.856Z,5.4
2019-03-13T08:50:11.874Z,5.4
2019-03-13T08:51:01.865Z,5.4
2019-03-13T08:51:51.885Z,5.4
2019-03-13T08:52:41.892Z,5.4
2019-03-13T08:53:31.832Z,5.4
2019-03-13T08:54:21.866Z,5.4
2019-03-13T08:55:11.891Z,5.4
2019-03-13T08:56:02.075Z,5.4
2019-03-13T08:56:51.858Z,5.4
2019-03-13T08:57:41.827Z,5.5
2019-03-13T08:58:31.886Z,5.5
2019-03-13T08:59:23.521Z,5.5
2019-03-13T09:00:11.837Z,5.5
2019-03-13T09:01:01.863Z,5.5
2019-03-13T09:01:51.927Z,5.5
2019-03-13T09:02:41.908Z,5.5
2019-03-13T09:03:31.855Z,5.5
2019-03-13T09:04:21.886Z,5.5
2019-03-13T09:05:11.858Z,5.5
2019-03-13T09:06:02.650Z,5.5
2019-03-13T09:06:51.870Z,5.5
2019-03-13T09:07:41.974Z,5.5
2019-03-13T09:08:31.840Z,5.5
2019-03-13T09:09:21.886Z,5.6
2019-03-13T09:10:11.864Z,5.6
2019-03-13T09:11:01.845Z,5.6
2019-03-13T09:11:51.893Z,5.6
2019-03-13T09:12:41.895Z,5.6
2019-03-13T09:13:31.843Z,5.6
2019-03-13T09:14:21.904Z,5.6
2019-03-13T09:15:11.877Z,5.6
2019-03-13T09:16:01.881Z,5.7
2019-03-13T09:16:51.935Z,5.7
2019-03-13T09:17:41.913Z,5.7
2019-03-13T09:18:31.933Z,5.7
2019-03-13T09:19:21.870Z,5.7
2019-03-13T09:20:11.867Z,5.7
2019-03-13T09:21:01.929Z,5.7
2019-03-13T09:21:51.868Z,5.7
2019-03-13T09:22:41.892Z,5.7
2019-03-13T09:23:31.936Z,5.7
2019-03-13T09:24:21.898Z,5.7
2019-03-13T09:25:12.724Z,5.7
2019-03-13T09:26:03.090Z,5.7
2019-03-13T09:26:51.959Z,5.7
2019-03-13T09:27:41.901Z,5.7
2019-03-13T09:28:31.917Z,5.7
2019-03-13T09:29:21.924Z,5.7
2019-03-13T09:30:11.842Z,5.7
2019-03-13T09:31:01.937Z,5.7
2019-03-13T09:31:51.918Z,5.7
2019-03-13T09:32:41.848Z,5.7
2019-03-13T09:33:31.878Z,5.7
2019-03-13T09:34:21.861Z,5.7
2019-03-13T09:35:12.187Z,5.7
2019-03-13T09:36:02.344Z,5.7
2019-03-13T09:36:51.847Z,5.7
2019-03-13T09:37:41.885Z,5.7
2019-03-13T09:38:31.847Z,5.7
2019-03-13T09:39:21.826Z,5.7
2019-03-13T09:40:12.152Z,5.7
2019-03-13T09:41:01.939Z,5.7
2019-03-13T09:41:51.926Z,5.7
2019-03-13T09:42:41.930Z,5.7
2019-03-13T09:43:31.899Z,5.7
2019-03-13T09:44:21.866Z,5.7
2019-03-13T09:45:11.891Z,5.7
2019-03-13T09:46:02.832Z,5.7
2019-03-13T09:46:51.869Z,5.7
2019-03-13T09:47:41.866Z,5.7
2019-03-13T09:48:31.837Z,5.7
2019-03-13T09:49:21.864Z,5.7
2019-03-13T09:50:11.840Z,5.7
2019-03-13T09:51:01.935Z,5.7
2019-03-13T09:51:51.967Z,5.7
2019-03-13T09:52:41.895Z,5.7
2019-03-13T09:53:31.892Z,5.7
2019-03-13T09:54:21.928Z,5.7
2019-03-13T09:55:11.867Z,5.7
2019-03-13T09:56:02.467Z,5.7
2019-03-13T09:56:52.581Z,5.7
2019-03-13T09:57:42.447Z,5.7
2019-03-13T09:58:32.513Z,5.7
2019-03-13T09:59:22.477Z,5.7
2019-03-13T10:00:12.489Z,5.7
2019-03-13T10:01:02.502Z,5.7
2019-03-13T10:01:52.493Z,5.7
2019-03-13T10:02:42.503Z,5.7
2019-03-13T10:03:32.582Z,5.7
2019-03-13T10:04:22.464Z,5.7
2019-03-13T10:05:12.469Z,5.7
2019-03-13T10:06:02.436Z,5.7
2019-03-13T10:06:52.465Z,5.7
2019-03-13T10:07:42.557Z,5.7
2019-03-13T10:08:32.451Z,5.7
2019-03-13T10:09:22.505Z,5.7
2019-03-13T10:10:12.450Z,5.8
2019-03-13T10:11:02.599Z,5.8
2019-03-13T10:11:52.504Z,5.8
2019-03-13T10:12:43.066Z,5.7
2019-03-13T10:13:32.751Z,5.8
2019-03-13T10:14:22.733Z,5.8
2019-03-13T10:15:12.823Z,5.8
2019-03-13T10:16:03.196Z,5.8
2019-03-13T10:16:52.743Z,5.8
2019-03-13T10:17:42.745Z,5.8
2019-03-13T10:18:32.821Z,5.8
2019-03-13T10:19:22.752Z,5.8
2019-03-13T10:20:12.741Z,5.8
2019-03-13T10:21:02.701Z,5.8
2019-03-13T10:21:52.777Z,5.8
2019-03-13T10:22:42.732Z,5.8
2019-03-13T10:23:32.883Z,5.8
2019-03-13T10:24:22.746Z,5.8
2019-03-13T10:25:12.728Z,5.8
2019-03-13T10:26:02.938Z,5.8
2019-03-13T10:26:52.785Z,5.9
2019-03-13T10:27:42.735Z,5.9
2019-03-13T10:28:32.818Z,5.9
2019-03-13T10:29:23.032Z,5.9
2019-03-13T10:30:13.081Z,5.9
2019-03-13T10:31:03.003Z,6
2019-03-13T10:31:53.010Z,6
2019-03-13T10:32:43.080Z,6
2019-03-13T10:33:32.974Z,6
2019-03-13T10:34:22.991Z,6
2019-03-13T10:35:13.008Z,6
2019-03-13T10:36:03.318Z,6.1
2019-03-13T10:36:52.987Z,6.1
2019-03-13T10:37:43.069Z,6.1
2019-03-13T10:38:33.030Z,6.1
2019-03-13T10:39:23.131Z,6.1
2019-03-13T10:40:13.031Z,6.1
2019-03-13T10:41:02.972Z,6.1
2019-03-13T10:41:53.008Z,6.1
2019-03-13T10:42:43.202Z,6.1
2019-03-13T10:43:33.013Z,6.1
2019-03-13T10:44:22.953Z,6.1
2019-03-13T10:45:13.051Z,6.1
2019-03-13T10:46:02.960Z,6.1
2019-03-13T10:46:53.056Z,6.1
2019-03-13T10:47:43.085Z,6.1
2019-03-13T10:48:32.953Z,6.1
2019-03-13T10:49:23.461Z,6.2
2019-03-13T10:50:12.993Z,6.2
2019-03-13T10:51:02.980Z,6.2
2019-03-13T10:51:53.895Z,6.2
2019-03-13T10:52:43.913Z,6.2
2019-03-13T10:53:33.950Z,6.2
2019-03-13T10:54:24.322Z,6.3
2019-03-13T10:55:14.087Z,6.3
2019-03-13T10:56:04.329Z,6.3
2019-03-13T10:56:53.842Z,6.3
2019-03-13T10:57:43.926Z,6.4
2019-03-13T10:58:33.817Z,6.4
2019-03-13T10:59:23.908Z,6.4
2019-03-13T11:00:14.088Z,6.4
2019-03-13T11:01:04.070Z,6.4
2019-03-13T11:01:54.029Z,6.4
2019-03-13T11:02:44.028Z,6.4
2019-03-13T11:03:34.034Z,6.5
2019-03-13T11:04:24.193Z,6.5
2019-03-13T11:05:14.174Z,6.5
2019-03-13T11:06:04.472Z,6.5
2019-03-13T11:06:55.383Z,6.6
2019-03-13T11:07:44.060Z,6.6
2019-03-13T11:08:34.061Z,6.6
2019-03-13T11:09:24.217Z,6.7
2019-03-13T11:10:14.096Z,6.7
2019-03-13T11:11:04.050Z,6.7
2019-03-13T11:11:54.099Z,6.7
2019-03-13T11:12:44.033Z,6.7
2019-03-13T11:13:34.103Z,6.8
2019-03-13T11:14:24.031Z,6.8
2019-03-13T11:15:14.177Z,6.8
2019-03-13T11:16:05.004Z,6.8
2019-03-13T11:16:54.095Z,6.8
2019-03-13T11:17:44.210Z,6.9
2019-03-13T11:18:34.129Z,6.9
2019-03-13T11:19:24.066Z,6.9
2019-03-13T11:20:14.143Z,6.9
2019-03-13T11:21:04.106Z,7
2019-03-13T11:21:54.067Z,7
2019-03-13T11:22:44.058Z,6.9
2019-03-13T11:23:34.084Z,6.9
2019-03-13T11:24:24.062Z,6.9
2019-03-13T11:25:14.196Z,6.9
2019-03-13T11:26:04.098Z,6.8
2019-03-13T11:26:54.100Z,6.8
2019-03-13T11:27:44.047Z,6.8
2019-03-13T11:28:34.051Z,6.8
2019-03-13T11:29:24.083Z,6.8
2019-03-13T11:30:14.072Z,6.8
2019-03-13T11:31:04.102Z,6.7
2019-03-13T11:31:54.122Z,6.7
2019-03-13T11:32:44.006Z,6.7